»·PEaware :: DIS4508 KSEA-KBOI

DIS4508 :: KSEA-KBOI

FLIGHT INFORMATION

Flight Status: Arrived
Operator:
InterSim
More flights by this operator :: More flights under this callsign
Pilot: Jessica F. (17029)
Aircraft: AIRBUS A319
(A319)
More flights by this aircraft type
Origin: KSEA Seattle-Tacoma Intl
United States
Destination: KBOI Boise Air Terminal/Gowen
United States
More flights between these airports :: More routes between these airports
Route: +SUMMA1 SUMMA J54 BKE DEVLE KYAAN3
File this flight plan on PilotEdge
Remarks: PBN / A1B1C1D1O1S1 DOF / 180902 REG / N530VA EET / KZLC0031 OPR / DIS PER / C RMK / TCAS SIMBRIEF
Altitude:
(Current/Filed)
39,000ft
Speed:
(Current/Filed)
449kts
Departed: 02-Sep-18 09:42 AM
Arrived: 02-Sep-18 10:50 AM
Distance/Time
Traveled:
346nm/1:08
Distance/Time
To Go:
Arrived

Flight Plot

Page will automatically refresh every two minutes.

Flight plan parsing failed; only flown route is shown


Map Options




Map Legend


Flown Route
Filed Route
Departure Airport
Arrival Airport
Navaid (VOR, NDB)
Fix

Horizontal Profiles

Position Reports

Time Latitude Longitude Heading Altitude Ground
Speed
02-Sep-18 09:15 47.441927 -122.301799 40 335ft 0kts
02-Sep-18 09:16 47.441927 -122.301799 40 335ft 0kts
02-Sep-18 09:17 47.441927 -122.301799 40 335ft 0kts
02-Sep-18 09:18 47.441927 -122.301799 40 335ft 0kts
02-Sep-18 09:19 47.441927 -122.301799 40 335ft 0kts
02-Sep-18 09:20 47.441927 -122.301799 40 335ft 0kts
02-Sep-18 09:21 47.441927 -122.301799 40 335ft 0kts
02-Sep-18 09:22 47.441927 -122.301799 40 335ft 0kts
02-Sep-18 09:23 47.441927 -122.301799 40 336ft 0kts
02-Sep-18 09:24 47.441928 -122.301799 40 336ft 0kts
02-Sep-18 09:25 47.441928 -122.301799 40 336ft 0kts
02-Sep-18 09:26 47.441928 -122.301799 40 336ft 0kts
02-Sep-18 09:27 47.441928 -122.301799 40 336ft 0kts
02-Sep-18 09:28 47.441928 -122.301799 40 336ft 0kts
02-Sep-18 09:29 47.441928 -122.301799 40 336ft 0kts
02-Sep-18 09:30 47.441928 -122.301799 40 336ft 0kts
02-Sep-18 09:31 47.441928 -122.301799 40 336ft 0kts
02-Sep-18 09:32 47.441917 -122.301813 43 336ft 1kts
02-Sep-18 09:33 47.441406 -122.302137 23 336ft 2kts
02-Sep-18 09:34 47.440867 -122.302484 23 336ft 2kts
02-Sep-18 09:35 47.440317 -122.302838 23 336ft 2kts
02-Sep-18 09:36 47.440071 -122.303024 62 336ft 0kts
02-Sep-18 09:37 47.440071 -122.303024 62 336ft 0kts
02-Sep-18 09:38 47.440493 -122.301901 82 336ft 10kts
02-Sep-18 09:39 47.437504 -122.301596 253 336ft 19kts
02-Sep-18 09:40 47.437214 -122.303729 267 336ft 0kts
02-Sep-18 09:41 47.437221 -122.304966 270 336ft 12kts
02-Sep-18 09:42 47.432418 -122.305838 197 336ft 24kts
02-Sep-18 09:43 47.431856 -122.307593 302 336ft 16kts
02-Sep-18 09:44 47.461641 -122.307509 1 1230ft 191kts
02-Sep-18 09:45 47.516103 -122.308216 356 4206ft 242kts
02-Sep-18 09:45 47.574486 -122.308584 3 7176ft 269kts
02-Sep-18 09:46 47.618826 -122.226711 86 9002ft 304kts
02-Sep-18 09:48 47.617095 -122.081508 102 10208ft 317kts
02-Sep-18 09:48 47.561927 -122.014561 181 12050ft 354kts
02-Sep-18 09:49 47.462113 -122.021865 186 15079ft 371kts
02-Sep-18 09:50 47.357967 -122.027764 187 17780ft 384kts
02-Sep-18 09:51 47.250395 -122.033594 187 20175ft 397kts
02-Sep-18 09:52 47.140704 -122.039477 187 22361ft 408kts
02-Sep-18 09:53 47.028797 -122.045418 187 24287ft 419kts
02-Sep-18 09:54 46.912203 -122.051565 187 26046ft 429kts
02-Sep-18 09:55 46.797699 -122.057021 184 27547ft 441kts
02-Sep-18 09:56 46.677573 -122.017168 165 29213ft 455kts
02-Sep-18 09:57 46.581779 -121.901238 122 30679ft 477kts
02-Sep-18 09:58 46.517060 -121.733880 121 31862ft 483kts
02-Sep-18 09:59 46.449614 -121.564695 122 32858ft 489kts
02-Sep-18 10:00 46.381439 -121.395069 122 34092ft 487kts
02-Sep-18 10:01 46.316488 -121.233802 122 35104ft 485kts
02-Sep-18 10:02 46.248527 -121.066213 123 36051ft 482kts
02-Sep-18 10:03 46.181436 -120.902074 122 36976ft 475kts
02-Sep-18 10:04 46.114336 -120.738836 123 37530ft 476kts
02-Sep-18 10:05 46.047591 -120.577407 123 37985ft 477kts
02-Sep-18 10:06 45.979713 -120.414206 123 38429ft 476kts
02-Sep-18 10:07 45.914837 -120.258807 123 38744ft 477kts
02-Sep-18 10:08 45.847945 -120.100439 123 38986ft 478kts
02-Sep-18 10:09 45.778921 -119.937406 123 39125ft 479kts
02-Sep-18 10:10 45.709853 -119.775078 123 39127ft 477kts
02-Sep-18 10:11 45.640625 -119.613624 123 39126ft 478kts
02-Sep-18 10:12 45.571301 -119.452587 123 39127ft 477kts
02-Sep-18 10:13 45.502770 -119.294077 124 39123ft 477kts
02-Sep-18 10:14 45.433293 -119.134100 124 39132ft 478kts
02-Sep-18 10:15 45.363241 -118.974054 124 39136ft 478kts
02-Sep-18 10:16 45.292936 -118.814357 124 39138ft 478kts
02-Sep-18 10:17 45.222432 -118.655128 124 39174ft 477kts
02-Sep-18 10:18 45.151699 -118.496248 124 39181ft 477kts
02-Sep-18 10:19 45.082844 -118.342375 125 38044ft 466kts
02-Sep-18 10:20 45.014033 -118.189115 125 36467ft 464kts
02-Sep-18 10:21 44.945121 -118.036834 125 33717ft 466kts
02-Sep-18 10:22 44.876506 -117.886387 125 30636ft 468kts
02-Sep-18 10:23 44.789866 -117.760301 151 28338ft 445kts
02-Sep-18 10:24 44.686502 -117.670476 150 26054ft 431kts
02-Sep-18 10:25 44.587062 -117.581719 150 23768ft 418kts
02-Sep-18 10:26 44.490768 -117.495862 149 21487ft 406kts
02-Sep-18 10:27 44.397850 -117.413254 149 19206ft 390kts
02-Sep-18 10:28 44.308715 -117.334199 149 16949ft 378kts
02-Sep-18 10:29 44.221389 -117.255801 145 14671ft 372kts
02-Sep-18 10:30 44.145670 -117.161745 137 13025ft 355kts
02-Sep-18 10:31 44.077701 -117.072755 137 12164ft 342kts
02-Sep-18 10:32 44.009377 -116.983716 137 10509ft 335kts
02-Sep-18 10:33 43.950515 -116.893379 124 9973ft 292kts
02-Sep-18 10:34 43.906575 -116.802358 124 10033ft 282kts
02-Sep-18 10:35 43.863973 -116.715200 124 10033ft 280kts
02-Sep-18 10:36 43.820245 -116.625817 124 10033ft 280kts
02-Sep-18 10:37 43.776621 -116.538009 124 10027ft 279kts
02-Sep-18 10:38 43.732383 -116.448995 124 9137ft 282kts
02-Sep-18 10:39 43.688275 -116.360501 123 8008ft 289kts
02-Sep-18 10:40 43.651803 -116.261635 115 8005ft 292kts
02-Sep-18 10:41 43.617145 -116.163444 117 7352ft 270kts
02-Sep-18 10:42 43.585313 -116.076530 116 6546ft 233kts
02-Sep-18 10:43 43.557361 -116.000194 116 6313ft 214kts
02-Sep-18 10:44 43.527774 -115.929595 153 6268ft 213kts
02-Sep-18 10:45 43.483898 -115.967520 255 6034ft 199kts
02-Sep-18 10:46 43.499916 -116.030737 296 5475ft 148kts
02-Sep-18 10:47 43.516822 -116.079718 295 4760ft 135kts
02-Sep-18 10:48 43.532790 -116.126827 296 4075ft 135kts
02-Sep-18 10:49 43.548600 -116.173443 296 3361ft 135kts
02-Sep-18 10:50 43.563257 -116.216583 295 2847ft 66kts
02-Sep-18 10:51 43.566415 -116.221829 72 2847ft 13kts
02-Sep-18 10:52 43.566940 -116.219678 33 2847ft 0kts
02-Sep-18 10:53 43.566940 -116.219678 33 2847ft 0kts
02-Sep-18 10:54 43.566940 -116.219678 33 2847ft 0kts

Navigation Log

Ident Type
Flight plan parsing failed, navigation log unavailable